createdAt,value
2018-10-11T00:01:03.254Z,11.60
2018-10-11T00:02:06.667Z,13.17
2018-10-11T00:03:10.214Z,23.37
2018-10-11T00:04:13.669Z,18.83
2018-10-11T00:05:17.079Z,10.97
2018-10-11T00:06:20.479Z,9.97
2018-10-11T00:07:24.460Z,9.60
2018-10-11T00:08:27.852Z,14.50
2018-10-11T00:09:31.252Z,8.43
2018-10-11T00:10:34.660Z,12.13
2018-10-11T00:11:38.065Z,16.80
2018-10-11T00:12:41.504Z,13.67
2018-10-11T00:13:44.938Z,15.20
2018-10-11T00:14:48.429Z,9.80
2018-10-11T00:15:52.023Z,14.93
2018-10-11T00:16:55.467Z,12.97
2018-10-11T00:17:58.869Z,11.50
2018-10-11T00:19:02.299Z,11.40
2018-10-11T00:20:05.783Z,11.23
2018-10-11T00:21:09.161Z,13.90
2018-10-11T00:22:12.628Z,13.33
2018-10-11T00:23:16.048Z,10.23
2018-10-11T00:24:19.433Z,15.80
2018-10-11T00:25:23.045Z,9.43
2018-10-11T00:26:26.445Z,7.80
2018-10-11T00:27:29.848Z,14.30
2018-10-11T00:28:33.283Z,15.53
2018-10-11T00:29:36.707Z,8.93
2018-10-11T00:30:40.153Z,9.50
2018-10-11T00:31:43.559Z,8.97
2018-10-11T00:32:47.044Z,12.80
2018-10-11T00:33:50.464Z,12.73
2018-10-11T00:34:53.864Z,15.90
2018-10-11T00:35:57.240Z,12.80
2018-10-11T00:37:00.658Z,9.17
2018-10-11T00:38:04.127Z,7.60
2018-10-11T00:39:08.701Z,13.53
2018-10-11T00:40:12.101Z,10.23
2018-10-11T00:41:15.519Z,12.87
2018-10-11T00:42:18.913Z,8.73
2018-10-11T00:43:22.360Z,12.90
2018-10-11T00:44:25.869Z,13.70
2018-10-11T00:45:29.290Z,9.97
2018-10-11T00:46:32.799Z,7.00
2018-10-11T00:47:36.176Z,8.37
2018-10-11T00:48:39.912Z,9.60
2018-10-11T00:49:43.305Z,11.30
2018-10-11T00:50:46.700Z,11.10
2018-10-11T00:51:50.171Z,11.63
2018-10-11T00:52:53.607Z,8.23
2018-10-11T00:53:56.975Z,8.70
2018-10-11T00:55:00.365Z,8.70
2018-10-11T00:56:03.779Z,9.13
2018-10-11T00:57:07.700Z,8.90
2018-10-11T00:58:11.088Z,9.90
2018-10-11T00:59:14.476Z,16.43
2018-10-11T01:00:17.913Z,10.57
2018-10-11T01:01:21.354Z,9.17
2018-10-11T01:02:24.808Z,8.23
2018-10-11T01:03:28.209Z,8.87
2018-10-11T01:04:31.578Z,8.83
2018-10-11T01:05:34.998Z,9.27
2018-10-11T01:06:38.443Z,11.87
2018-10-11T01:07:41.851Z,11.60
2018-10-11T01:08:45.214Z,7.10
2018-10-11T01:09:48.596Z,9.90
2018-10-11T01:10:52.096Z,9.80
2018-10-11T01:11:55.500Z,14.80
2018-10-11T01:12:58.875Z,8.60
2018-10-11T01:14:02.261Z,9.87
2018-10-11T01:15:05.973Z,11.53
2018-10-11T01:16:09.358Z,13.03
2018-10-11T01:17:12.879Z,9.87
2018-10-11T01:18:16.277Z,7.60
2018-10-11T01:19:19.756Z,10.00
2018-10-11T01:20:23.180Z,11.10
2018-10-11T01:21:26.625Z,9.40
2018-10-11T01:22:30.175Z,9.80
2018-10-11T01:23:33.581Z,17.43
2018-10-11T01:24:36.984Z,10.60
2018-10-11T01:25:40.390Z,9.67
2018-10-11T01:26:43.797Z,9.00
2018-10-11T01:27:47.170Z,10.27
2018-10-11T01:28:50.553Z,11.27
2018-10-11T01:29:54.043Z,11.37
2018-10-11T01:31:02.721Z,11.60
2018-10-11T01:32:06.568Z,11.10
2018-10-11T01:33:09.982Z,9.67
2018-10-11T01:34:13.409Z,10.07
2018-10-11T01:35:16.788Z,12.00
2018-10-11T01:36:20.499Z,10.40
2018-10-11T01:37:25.234Z,7.13
2018-10-11T01:38:28.732Z,11.83
2018-10-11T01:39:32.552Z,8.30
2018-10-11T01:40:36.003Z,8.37
2018-10-11T01:41:39.483Z,9.13
2018-10-11T01:42:43.000Z,9.67
2018-10-11T01:43:46.571Z,10.00
2018-10-11T01:44:50.015Z,8.60
2018-10-11T01:45:53.559Z,11.37
2018-10-11T01:46:57.059Z,11.93
2018-10-11T01:48:00.478Z,8.80
2018-10-11T01:49:04.034Z,8.80
2018-10-11T01:50:07.513Z,12.50
2018-10-11T01:51:11.329Z,6.83
2018-10-11T01:52:14.810Z,10.40
2018-10-11T01:53:18.249Z,8.50
2018-10-11T01:54:21.689Z,10.73
2018-10-11T01:55:26.523Z,10.37
2018-10-11T01:56:30.407Z,6.40
2018-10-11T01:57:33.821Z,7.37
2018-10-11T01:58:37.759Z,7.10
2018-10-11T01:59:41.171Z,9.03
2018-10-11T02:00:44.597Z,13.57
2018-10-11T02:01:48.002Z,10.67
2018-10-11T02:02:51.391Z,9.23
2018-10-11T02:03:54.997Z,9.37
2018-10-11T02:04:58.376Z,15.00
2018-10-11T02:06:01.812Z,12.03
2018-10-11T02:07:05.222Z,8.40
2018-10-11T02:08:08.633Z,8.20
2018-10-11T02:09:12.020Z,7.40
2018-10-11T02:10:15.429Z,7.90
2018-10-11T02:11:18.861Z,11.73
2018-10-11T02:12:22.276Z,12.10
2018-10-11T02:13:25.790Z,7.27
2018-10-11T02:14:29.232Z,11.50
2018-10-11T02:15:32.604Z,8.30
2018-10-11T02:16:36.019Z,11.10
2018-10-11T02:17:39.724Z,9.60
2018-10-11T02:18:43.176Z,8.87
2018-10-11T02:19:46.545Z,12.43
2018-10-11T02:20:49.950Z,10.17
2018-10-11T02:21:53.407Z,10.07
2018-10-11T02:22:56.945Z,10.27
2018-10-11T02:24:00.366Z,11.50
2018-10-11T02:25:03.780Z,9.50
2018-10-11T02:26:07.475Z,10.20
2018-10-11T02:27:10.908Z,7.97
2018-10-11T02:28:14.346Z,8.80
2018-10-11T02:29:17.746Z,8.30
2018-10-11T02:30:21.211Z,10.60
2018-10-11T02:31:24.803Z,10.60
2018-10-11T02:32:28.462Z,8.30
2018-10-11T02:33:31.852Z,7.60
2018-10-11T02:34:35.226Z,20.33
2018-10-11T02:35:38.693Z,9.57
2018-10-11T02:36:42.085Z,9.93
2018-10-11T02:37:45.519Z,7.80
2018-10-11T02:38:48.916Z,6.50
2018-10-11T02:39:52.340Z,12.27
2018-10-11T02:40:55.813Z,11.00
2018-10-11T02:41:59.240Z,8.93
2018-10-11T02:43:02.657Z,6.70
2018-10-11T02:44:06.113Z,9.37
2018-10-11T02:45:09.653Z,8.93
2018-10-11T02:46:13.141Z,7.57
2018-10-11T02:47:16.545Z,11.27
2018-10-11T02:48:19.994Z,6.90
2018-10-11T02:49:23.594Z,10.00
2018-10-11T02:50:27.041Z,8.63
2018-10-11T02:51:30.962Z,7.83
2018-10-11T02:52:34.435Z,18.77
2018-10-11T02:53:38.112Z,11.47
2018-10-11T02:54:41.580Z,15.57
2018-10-11T02:55:45.237Z,8.00
2018-10-11T02:56:48.773Z,12.90
2018-10-11T02:58:03.816Z,8.23
2018-10-11T02:59:18.498Z,10.40
2018-10-11T03:00:22.071Z,7.00
2018-10-11T03:01:25.577Z,7.73
2018-10-11T03:02:29.124Z,12.80
2018-10-11T03:03:32.621Z,10.80
2018-10-11T03:04:36.487Z,6.90
2018-10-11T03:05:42.916Z,9.77
2018-10-11T03:06:46.393Z,7.20
2018-10-11T03:07:49.878Z,5.70
2018-10-11T03:08:53.454Z,8.60
2018-10-11T03:09:57.288Z,7.77
2018-10-11T03:11:00.755Z,6.40
2018-10-11T03:12:04.219Z,13.87
2018-10-11T03:13:11.111Z,8.97
2018-10-11T03:14:14.518Z,5.80
2018-10-11T03:15:17.896Z,9.27
2018-10-11T03:16:21.324Z,6.93
2018-10-11T03:17:24.728Z,6.40
2018-10-11T03:18:28.168Z,7.53
2018-10-11T03:19:31.555Z,6.53
2018-10-11T03:20:34.987Z,9.20
2018-10-11T03:21:38.412Z,7.60
2018-10-11T03:22:41.836Z,13.30
2018-10-11T03:23:45.263Z,9.60
2018-10-11T03:24:48.664Z,6.47
2018-10-11T03:25:52.084Z,9.03
2018-10-11T03:26:57.572Z,7.00
2018-10-11T03:28:01.010Z,8.30
2018-10-11T03:29:04.423Z,8.67
2018-10-11T03:30:07.857Z,7.90
2018-10-11T03:31:11.256Z,8.97
2018-10-11T03:32:14.646Z,12.97
2018-10-11T03:33:18.082Z,6.23
2018-10-11T03:34:21.485Z,10.30
2018-10-11T03:35:24.839Z,9.20
2018-10-11T03:36:28.212Z,6.03
2018-10-11T03:37:31.596Z,7.10
2018-10-11T03:38:35.017Z,7.27
2018-10-11T03:39:38.456Z,6.60
2018-10-11T03:40:42.021Z,6.80
2018-10-11T03:41:45.433Z,8.60
2018-10-11T03:42:48.832Z,7.80
2018-10-11T03:43:52.315Z,8.30
2018-10-11T03:44:55.717Z,7.10
2018-10-11T03:45:59.233Z,8.10
2018-10-11T03:47:02.620Z,7.90
2018-10-11T03:48:06.077Z,9.67
2018-10-11T03:49:09.524Z,9.93
2018-10-11T03:50:12.993Z,5.70
2018-10-11T03:51:16.387Z,9.57
2018-10-11T03:52:19.808Z,8.73
2018-10-11T03:53:23.204Z,7.80
2018-10-11T03:54:26.911Z,7.13
2018-10-11T03:55:30.324Z,6.63
2018-10-11T03:56:33.705Z,6.63
2018-10-11T03:57:37.089Z,9.10
2018-10-11T03:58:40.587Z,8.93
2018-10-11T03:59:44.096Z,7.47
2018-10-11T04:00:47.578Z,13.33
2018-10-11T04:01:51.145Z,6.63
2018-10-11T04:02:54.861Z,10.13
2018-10-11T04:03:58.745Z,5.47
2018-10-11T04:05:02.237Z,8.00
2018-10-11T04:06:05.665Z,8.30
2018-10-11T04:07:09.273Z,6.50
2018-10-11T04:08:14.253Z,6.90
2018-10-11T04:09:17.718Z,7.47
2018-10-11T04:10:21.910Z,6.90
2018-10-11T04:11:25.689Z,9.00
2018-10-11T04:12:29.107Z,7.50
2018-10-11T04:13:32.531Z,6.83
2018-10-11T04:14:36.024Z,8.77
2018-10-11T04:15:39.682Z,6.30
2018-10-11T04:16:43.032Z,9.30
2018-10-11T04:17:46.426Z,6.57
2018-10-11T04:18:49.841Z,9.20
2018-10-11T04:19:53.738Z,6.20
2018-10-11T04:20:57.305Z,7.30
2018-10-11T04:22:00.761Z,12.20
2018-10-11T04:23:04.332Z,5.70
2018-10-11T04:24:07.783Z,10.70
2018-10-11T04:25:11.708Z,6.90
2018-10-11T04:26:16.579Z,6.30
2018-10-11T04:27:19.985Z,7.47
2018-10-11T04:28:23.654Z,6.17
2018-10-11T04:29:27.293Z,6.00
2018-10-11T04:30:30.734Z,6.37
2018-10-11T04:31:34.635Z,5.97
2018-10-11T04:32:38.121Z,5.67
2018-10-11T04:33:41.567Z,7.67
2018-10-11T04:34:44.952Z,5.53
2018-10-11T04:35:48.335Z,6.83
2018-10-11T04:36:52.518Z,7.87
2018-10-11T04:37:56.819Z,6.87
2018-10-11T04:39:00.641Z,9.83
2018-10-11T04:40:04.136Z,5.93
2018-10-11T04:41:07.692Z,7.70
2018-10-11T04:42:11.442Z,11.80
2018-10-11T04:43:15.070Z,8.30
2018-10-11T04:44:18.900Z,7.73
2018-10-11T04:45:22.776Z,7.80
2018-10-11T04:46:26.366Z,9.70
2018-10-11T04:47:30.567Z,9.53
2018-10-11T04:48:34.240Z,6.70
2018-10-11T04:49:37.712Z,6.00
2018-10-11T04:50:43.217Z,7.80
2018-10-11T04:51:46.636Z,8.63
2018-10-11T04:52:50.047Z,9.07
2018-10-11T04:53:55.955Z,7.43
2018-10-11T04:54:59.326Z,7.37
2018-10-11T04:56:02.751Z,7.10
2018-10-11T04:57:06.339Z,9.10
2018-10-11T04:58:09.934Z,11.80
2018-10-11T04:59:13.335Z,10.60
2018-10-11T05:00:16.714Z,9.10
2018-10-11T05:01:20.142Z,13.37
2018-10-11T05:02:23.644Z,23.77
2018-10-11T05:03:27.057Z,10.60
2018-10-11T05:04:30.444Z,10.23
2018-10-11T05:05:33.867Z,10.97
2018-10-11T05:06:37.484Z,12.70
2018-10-11T05:07:40.888Z,8.73
2018-10-11T05:08:44.298Z,8.63
2018-10-11T05:09:47.722Z,10.27
2018-10-11T05:10:51.189Z,5.90
2018-10-11T05:11:54.740Z,10.90
2018-10-11T05:12:58.442Z,17.10
2018-10-11T05:14:01.957Z,53.17
2018-10-11T05:15:06.707Z,20.73
2018-10-11T05:16:10.489Z,36.73
2018-10-11T05:17:14.058Z,24.63
2018-10-11T05:18:20.099Z,34.87
2018-10-11T05:19:24.079Z,30.70
2018-10-11T05:20:27.561Z,29.23
2018-10-11T05:21:31.278Z,28.00
2018-10-11T05:22:34.894Z,28.43
2018-10-11T05:23:38.345Z,24.23
2018-10-11T05:24:41.880Z,32.40
2018-10-11T05:25:45.288Z,31.40
2018-10-11T05:26:48.715Z,24.53
2018-10-11T05:27:52.205Z,28.60
2018-10-11T05:28:55.639Z,27.50
2018-10-11T05:29:59.059Z,30.70
2018-10-11T05:31:02.613Z,34.33
2018-10-11T05:32:06.062Z,34.50
2018-10-11T05:33:09.513Z,33.80
2018-10-11T05:34:12.925Z,29.73
2018-10-11T05:35:16.343Z,22.80
2018-10-11T05:36:19.729Z,28.03
2018-10-11T05:37:23.224Z,26.53
2018-10-11T05:38:27.048Z,28.50
2018-10-11T05:39:30.590Z,26.63
2018-10-11T05:40:34.079Z,35.47
2018-10-11T05:41:37.788Z,28.87
2018-10-11T05:42:41.707Z,36.87
2018-10-11T05:43:45.338Z,25.90
2018-10-11T05:44:48.900Z,28.20
2018-10-11T05:45:56.363Z,30.10
2018-10-11T05:46:59.857Z,26.93
2018-10-11T05:48:03.310Z,23.63
2018-10-11T05:49:07.027Z,26.67
2018-10-11T05:50:11.008Z,21.97
2018-10-11T05:51:14.465Z,22.67
2018-10-11T05:52:17.974Z,19.50
2018-10-11T05:53:21.515Z,26.87
2018-10-11T05:54:25.029Z,24.33
2018-10-11T05:55:28.477Z,27.33
2018-10-11T05:56:34.955Z,18.93
2018-10-11T05:57:38.432Z,24.67
2018-10-11T05:58:41.880Z,24.63
2018-10-11T05:59:45.391Z,25.20
2018-10-11T06:00:49.109Z,20.87
2018-10-11T06:01:52.692Z,24.70
2018-10-11T06:03:03.587Z,24.37
2018-10-11T06:04:08.926Z,24.03
2018-10-11T06:05:12.402Z,28.93
2018-10-11T06:06:15.970Z,25.07
2018-10-11T06:07:19.560Z,27.93
2018-10-11T06:08:23.088Z,21.93
2018-10-11T06:09:26.571Z,28.03
2018-10-11T06:10:34.470Z,23.63
2018-10-11T06:11:37.983Z,21.10
2018-10-11T06:12:41.799Z,27.77
2018-10-11T06:13:46.509Z,26.30
2018-10-11T06:14:50.415Z,20.50
2018-10-11T06:15:53.966Z,22.03
2018-10-11T06:16:57.532Z,30.20
2018-10-11T06:18:01.102Z,24.53
2018-10-11T06:19:04.536Z,22.03
2018-10-11T06:20:08.069Z,18.83
2018-10-11T06:21:11.757Z,24.87
2018-10-11T06:22:15.170Z,21.20
2018-10-11T06:23:18.674Z,17.97
2018-10-11T06:24:22.189Z,21.77
2018-10-11T06:25:25.631Z,19.43
2018-10-11T06:26:29.126Z,26.73
2018-10-11T06:27:32.537Z,17.20
2018-10-11T06:28:37.447Z,25.73
2018-10-11T06:29:42.039Z,18.70
2018-10-11T06:30:45.541Z,20.73
2018-10-11T06:31:49.025Z,19.60
2018-10-11T06:32:52.897Z,32.10
2018-10-11T06:33:56.356Z,26.23
2018-10-11T06:34:59.854Z,23.20
2018-10-11T06:36:03.417Z,19.23
2018-10-11T06:37:06.796Z,19.60
2018-10-11T06:38:10.293Z,25.53
2018-10-11T06:39:13.799Z,22.73
2018-10-11T06:40:17.896Z,20.00
2018-10-11T06:41:21.549Z,26.20
2018-10-11T06:42:25.134Z,28.17
2018-10-11T06:43:28.589Z,30.93
2018-10-11T06:44:32.455Z,19.03
2018-10-11T06:45:35.960Z,17.93
2018-10-11T06:46:39.623Z,16.93
2018-10-11T06:47:45.447Z,17.27
2018-10-11T06:48:48.966Z,18.43
2018-10-11T06:49:52.715Z,23.13
2018-10-11T06:50:56.130Z,15.53
2018-10-11T06:51:59.606Z,18.63
2018-10-11T06:53:03.108Z,22.57
2018-10-11T06:54:06.518Z,19.73
2018-10-11T06:55:10.010Z,18.47
2018-10-11T06:56:13.691Z,21.00
2018-10-11T06:57:17.186Z,19.23
2018-10-11T06:58:20.698Z,19.13
2018-10-11T06:59:24.181Z,23.00
2018-10-11T07:00:27.652Z,20.13
2018-10-11T07:01:31.064Z,24.50
2018-10-11T07:02:34.528Z,20.73
2018-10-11T07:03:37.965Z,18.47
2018-10-11T07:04:41.399Z,23.40
2018-10-11T07:05:44.876Z,24.83
2018-10-11T07:06:48.318Z,17.37
2018-10-11T07:07:51.806Z,21.07
2018-10-11T07:08:55.242Z,21.97
2018-10-11T07:09:59.092Z,17.37
2018-10-11T07:11:02.529Z,20.60
2018-10-11T07:12:05.960Z,19.37
2018-10-11T07:13:09.977Z,18.60
2018-10-11T07:14:13.377Z,18.63
2018-10-11T07:15:16.812Z,21.03
2018-10-11T07:16:20.261Z,18.07
2018-10-11T07:17:23.689Z,23.00
2018-10-11T07:18:27.110Z,19.90
2018-10-11T07:19:30.588Z,26.00
2018-10-11T07:20:33.984Z,22.73
2018-10-11T07:21:37.397Z,21.00
2018-10-11T07:22:40.832Z,21.20
2018-10-11T07:23:44.253Z,19.70
2018-10-11T07:24:47.750Z,21.70
2018-10-11T07:25:52.169Z,17.20
2018-10-11T07:26:55.594Z,20.77
2018-10-11T07:27:59.091Z,17.20
2018-10-11T07:29:02.583Z,18.23
2018-10-11T07:30:06.824Z,18.47
2018-10-11T07:31:10.210Z,20.87
2018-10-11T07:32:13.630Z,20.00
2018-10-11T07:33:17.039Z,18.77
2018-10-11T07:34:20.451Z,21.33
2018-10-11T07:35:24.001Z,22.33
2018-10-11T07:36:27.353Z,18.63
2018-10-11T07:37:31.217Z,18.83
2018-10-11T07:38:34.633Z,21.67
2018-10-11T07:39:38.153Z,18.90
2018-10-11T07:40:41.833Z,19.43
2018-10-11T07:41:45.150Z,18.90
2018-10-11T07:42:48.588Z,21.53
2018-10-11T07:43:52.029Z,21.63
2018-10-11T07:44:55.507Z,19.77
2018-10-11T07:45:59.477Z,21.13
2018-10-11T07:47:03.199Z,25.57
2018-10-11T07:48:06.932Z,21.13
2018-10-11T07:49:12.246Z,20.10
2018-10-11T07:50:18.623Z,25.60
2018-10-11T07:51:22.250Z,19.97
2018-10-11T07:52:25.873Z,20.90
2018-10-11T07:53:29.476Z,21.10
2018-10-11T07:54:34.214Z,22.33
2018-10-11T07:55:37.728Z,20.60
2018-10-11T07:56:41.360Z,22.47
2018-10-11T07:57:44.821Z,22.60
2018-10-11T07:58:48.544Z,19.13
2018-10-11T07:59:53.596Z,21.73
2018-10-11T08:01:00.450Z,18.83
2018-10-11T08:02:05.172Z,21.17
2018-10-11T08:03:09.719Z,22.13
2018-10-11T08:04:15.165Z,19.23
2018-10-11T08:05:19.885Z,19.57
2018-10-11T08:06:24.433Z,23.10
2018-10-11T08:07:29.074Z,19.00
2018-10-11T08:08:33.613Z,21.10
2018-10-11T08:09:39.225Z,20.00
2018-10-11T08:10:43.521Z,25.00
2018-10-11T08:11:49.475Z,20.77
2018-10-11T08:12:53.988Z,20.20
2018-10-11T08:13:58.392Z,21.43
2018-10-11T08:15:01.840Z,18.73
2018-10-11T08:16:05.331Z,16.70
2018-10-11T08:17:08.787Z,17.77
2018-10-11T08:18:12.089Z,18.33
2018-10-11T08:19:15.724Z,18.50
2018-10-11T08:20:19.060Z,17.40
2018-10-11T08:21:22.571Z,19.13
2018-10-11T08:22:26.157Z,19.73
2018-10-11T08:23:29.559Z,18.37
2018-10-11T08:24:32.994Z,17.87
2018-10-11T08:25:36.847Z,18.17
2018-10-11T08:26:39.951Z,17.53
2018-10-11T08:27:43.367Z,16.67
2018-10-11T08:28:46.780Z,21.07
2018-10-11T08:29:50.506Z,20.50
2018-10-11T08:30:53.988Z,18.07
2018-10-11T08:31:57.442Z,18.00
2018-10-11T08:33:00.904Z,17.77
2018-10-11T08:34:04.317Z,19.70
2018-10-11T08:35:07.812Z,17.73
2018-10-11T08:36:11.233Z,15.97
2018-10-11T08:37:14.689Z,15.97
2018-10-11T08:38:18.151Z,16.90
2018-10-11T08:39:21.605Z,19.37
2018-10-11T08:40:25.125Z,16.50
2018-10-11T08:41:28.862Z,14.57
2018-10-11T08:42:32.338Z,16.80
2018-10-11T08:43:35.779Z,16.53
2018-10-11T08:44:39.266Z,21.13
2018-10-11T08:45:42.700Z,15.17
2018-10-11T08:46:46.087Z,19.07
2018-10-11T08:47:49.519Z,17.50
2018-10-11T08:48:52.991Z,19.70
2018-10-11T08:49:56.432Z,17.87
2018-10-11T08:50:59.893Z,15.37
2018-10-11T08:52:03.277Z,16.83
2018-10-11T08:53:07.734Z,17.50
2018-10-11T08:54:16.211Z,16.47
2018-10-11T08:55:19.636Z,16.43
2018-10-11T08:56:23.119Z,16.33
2018-10-11T08:57:26.569Z,17.07
2018-10-11T08:58:29.975Z,15.50
2018-10-11T08:59:33.647Z,15.77
2018-10-11T09:00:37.048Z,17.97
2018-10-11T09:01:40.522Z,15.30
2018-10-11T09:02:43.944Z,18.60
2018-10-11T09:03:47.568Z,15.30
2018-10-11T09:04:50.935Z,16.23
2018-10-11T09:05:55.492Z,16.60
2018-10-11T09:06:58.894Z,17.07
2018-10-11T09:08:02.301Z,15.13
2018-10-11T09:09:08.240Z,16.27
2018-10-11T09:10:11.838Z,15.83
2018-10-11T09:11:15.247Z,16.57
2018-10-11T09:12:18.672Z,17.63
2018-10-11T09:13:22.187Z,16.53
2018-10-11T09:14:25.606Z,14.73
2018-10-11T09:15:29.176Z,15.13
2018-10-11T09:16:32.603Z,25.43
2018-10-11T09:17:36.037Z,27.80
2018-10-11T09:18:39.468Z,20.67
2018-10-11T09:19:42.889Z,19.27
2018-10-11T09:20:46.301Z,33.43
2018-10-11T09:21:49.730Z,19.57
2018-10-11T09:22:53.345Z,25.27
2018-10-11T09:23:57.005Z,26.03
2018-10-11T09:25:00.487Z,22.37
2018-10-11T09:26:03.905Z,16.87
2018-10-11T09:27:07.514Z,18.13
2018-10-11T09:28:11.181Z,21.20
2018-10-11T09:29:15.055Z,18.90
2018-10-11T09:30:18.544Z,22.07
2018-10-11T09:31:22.008Z,25.70
2018-10-11T09:32:25.472Z,20.33
2018-10-11T09:33:29.162Z,16.57
2018-10-11T09:34:32.602Z,17.00
2018-10-11T09:35:36.018Z,17.90
2018-10-11T09:36:40.203Z,18.13
2018-10-11T09:37:44.617Z,16.70
2018-10-11T09:38:52.012Z,17.07
2018-10-11T09:39:55.512Z,20.77
2018-10-11T09:40:59.408Z,22.03
2018-10-11T09:42:02.855Z,21.07
2018-10-11T09:43:06.337Z,17.57
2018-10-11T09:44:10.144Z,21.70
2018-10-11T09:45:13.549Z,18.03
2018-10-11T09:46:16.947Z,20.23
2018-10-11T09:47:20.357Z,18.13
2018-10-11T09:48:23.852Z,21.43
2018-10-11T09:49:27.555Z,17.43
2018-10-11T09:50:30.996Z,20.00
2018-10-11T09:51:34.448Z,16.87
2018-10-11T09:52:37.840Z,18.90
2018-10-11T09:53:41.649Z,20.73
2018-10-11T09:54:45.127Z,21.10
2018-10-11T09:55:48.492Z,20.23
2018-10-11T09:57:28.280Z,20.53
2018-10-11T09:58:31.696Z,18.83
2018-10-11T09:59:35.145Z,19.50
2018-10-11T10:00:43.948Z,22.80
2018-10-11T10:01:47.407Z,20.27
2018-10-11T10:02:51.289Z,19.07
2018-10-11T10:03:54.724Z,18.30
2018-10-11T10:04:59.373Z,19.70
2018-10-11T10:06:02.838Z,21.60
2018-10-11T10:07:06.411Z,22.37
2018-10-11T10:08:09.859Z,21.17
2018-10-11T10:09:13.261Z,23.47
2018-10-11T10:10:16.731Z,20.17
2018-10-11T10:11:20.170Z,33.63
2018-10-11T10:12:23.751Z,28.87
2018-10-11T10:13:27.247Z,21.37
2018-10-11T10:14:30.851Z,23.80
2018-10-11T10:15:34.312Z,24.47
2018-10-11T10:16:37.850Z,24.07
2018-10-11T10:17:41.289Z,18.63
2018-10-11T10:18:44.689Z,21.90
2018-10-11T10:19:48.841Z,20.33
2018-10-11T10:20:52.897Z,25.17
2018-10-11T10:21:56.382Z,23.60
2018-10-11T10:22:59.797Z,20.53
2018-10-11T10:24:03.203Z,26.50
2018-10-11T10:25:06.944Z,21.93
2018-10-11T10:26:10.376Z,20.43
2018-10-11T10:27:14.131Z,19.53
2018-10-11T10:28:17.823Z,16.20
2018-10-11T10:29:21.253Z,19.70
2018-10-11T10:30:30.174Z,21.73
2018-10-11T10:31:33.589Z,20.30
2018-10-11T10:32:37.020Z,23.80
2018-10-11T10:33:40.424Z,16.37
2018-10-11T10:34:43.871Z,18.47
2018-10-11T10:35:47.435Z,27.50
2018-10-11T10:36:51.004Z,18.63
2018-10-11T10:37:54.491Z,16.60
2018-10-11T10:38:57.921Z,17.17
2018-10-11T10:40:01.372Z,24.13
2018-10-11T10:41:04.778Z,18.00
2018-10-11T10:42:08.226Z,24.40
2018-10-11T10:43:11.818Z,15.37
2018-10-11T10:44:15.244Z,35.20
2018-10-11T10:45:18.660Z,24.33
2018-10-11T10:46:22.128Z,17.27
2018-10-11T10:47:25.585Z,26.67
2018-10-11T10:48:29.087Z,20.00
2018-10-11T10:49:32.588Z,19.00
2018-10-11T10:50:35.980Z,17.20
2018-10-11T10:51:39.530Z,18.03
2018-10-11T10:52:42.944Z,15.57
2018-10-11T10:53:46.364Z,15.43
2018-10-11T10:54:49.793Z,17.00
2018-10-11T10:55:53.543Z,16.90
2018-10-11T10:56:57.452Z,17.17
2018-10-11T10:58:01.094Z,15.73
2018-10-11T10:59:04.793Z,23.43
2018-10-11T11:00:09.005Z,16.17
2018-10-11T11:01:12.460Z,17.17
2018-10-11T11:02:15.842Z,16.80
2018-10-11T11:03:19.313Z,15.90
2018-10-11T11:04:22.884Z,18.77
2018-10-11T11:05:26.357Z,16.47
2018-10-11T11:06:29.848Z,15.40
2018-10-11T11:07:33.560Z,20.37
2018-10-11T11:08:37.381Z,14.57
2018-10-11T11:09:40.864Z,14.50
2018-10-11T11:10:44.254Z,19.83
2018-10-11T11:11:47.781Z,17.40
2018-10-11T11:12:52.181Z,18.10
2018-10-11T11:13:56.667Z,16.17
2018-10-11T11:15:00.102Z,18.60
2018-10-11T11:16:03.509Z,16.27
2018-10-11T11:17:06.976Z,17.50
2018-10-11T11:18:10.595Z,15.37
2018-10-11T11:19:14.431Z,17.13
2018-10-11T11:20:17.931Z,18.30
2018-10-11T11:21:21.495Z,17.80
2018-10-11T11:22:24.949Z,17.27
2018-10-11T11:23:28.399Z,15.87
2018-10-11T11:24:31.876Z,16.60
2018-10-11T11:25:35.309Z,13.97
2018-10-11T11:26:38.799Z,15.60
2018-10-11T11:27:42.260Z,22.90
2018-10-11T11:28:45.755Z,18.37
2018-10-11T11:29:49.206Z,24.70
2018-10-11T11:30:52.740Z,14.90
2018-10-11T11:31:56.190Z,19.67
2018-10-11T11:32:59.703Z,17.37
2018-10-11T11:34:03.826Z,17.90
2018-10-11T11:35:07.431Z,16.93
2018-10-11T11:36:10.901Z,24.43
2018-10-11T11:37:14.336Z,14.80
2018-10-11T11:38:17.782Z,21.20
2018-10-11T11:39:21.466Z,14.23
2018-10-11T11:40:25.046Z,17.03
2018-10-11T11:41:28.584Z,14.87
2018-10-11T11:42:32.013Z,14.57
2018-10-11T11:43:35.505Z,13.87
2018-10-11T11:44:39.001Z,15.50
2018-10-11T11:45:42.483Z,17.07
2018-10-11T11:46:45.920Z,18.00
2018-10-11T11:47:49.454Z,16.50
2018-10-11T11:48:52.988Z,15.60
2018-10-11T11:49:56.678Z,22.23
2018-10-11T11:51:01.541Z,15.27
2018-10-11T11:52:05.194Z,16.10
2018-10-11T11:53:09.440Z,15.60
2018-10-11T11:54:18.903Z,14.50
2018-10-11T11:55:23.347Z,13.60
2018-10-11T11:56:27.199Z,16.23
2018-10-11T11:57:31.380Z,17.80
2018-10-11T11:58:35.625Z,14.80
2018-10-11T11:59:39.861Z,14.30
2018-10-11T12:00:43.496Z,18.10
2018-10-11T12:01:47.038Z,19.83
2018-10-11T12:02:51.331Z,14.10
2018-10-11T12:03:54.785Z,19.80
2018-10-11T12:04:58.341Z,14.13
2018-10-11T12:06:01.980Z,11.90
2018-10-11T12:07:05.441Z,15.10
2018-10-11T12:08:08.951Z,14.50
2018-10-11T12:09:13.824Z,19.93
2018-10-11T12:10:17.527Z,15.17
2018-10-11T12:11:20.986Z,17.97
2018-10-11T12:13:06.280Z,20.33
2018-10-11T12:14:10.097Z,14.63
2018-10-11T12:15:13.539Z,22.32
2018-10-11T12:16:17.392Z,18.83
2018-10-11T12:17:21.556Z,16.80
2018-10-11T12:18:25.005Z,19.43
2018-10-11T12:19:28.489Z,21.23
2018-10-11T12:20:33.108Z,15.93
2018-10-11T12:21:36.672Z,18.17
2018-10-11T12:22:40.125Z,20.87
2018-10-11T12:23:43.967Z,16.60
2018-10-11T12:24:47.540Z,15.03
2018-10-11T12:25:51.317Z,19.87
2018-10-11T12:26:55.545Z,17.27
2018-10-11T12:27:59.045Z,18.40
2018-10-11T12:29:02.760Z,19.40
2018-10-11T12:30:06.297Z,16.90
2018-10-11T12:31:09.803Z,28.40
2018-10-11T12:32:13.269Z,15.30
2018-10-11T12:33:17.201Z,19.03
2018-10-11T12:34:20.769Z,20.20
2018-10-11T12:35:25.181Z,20.63
2018-10-11T12:36:28.879Z,19.73
2018-10-11T12:37:32.244Z,16.97
2018-10-11T12:38:35.732Z,17.73
2018-10-11T12:39:39.150Z,18.63
2018-10-11T12:40:42.596Z,17.53
2018-10-11T12:41:46.128Z,19.77
2018-10-11T12:42:49.601Z,16.40
2018-10-11T12:43:53.537Z,18.07
2018-10-11T12:44:57.090Z,20.00
2018-10-11T12:46:00.523Z,25.20
2018-10-11T12:47:06.995Z,19.30
2018-10-11T12:48:10.569Z,18.20
2018-10-11T12:49:13.988Z,19.13
2018-10-11T12:50:17.426Z,19.53
2018-10-11T12:51:21.503Z,17.13
2018-10-11T12:52:25.689Z,18.03
2018-10-11T12:53:29.151Z,16.30
2018-10-11T12:54:32.617Z,21.27
2018-10-11T12:55:36.541Z,19.40
2018-10-11T12:56:40.100Z,16.40
2018-10-11T12:57:43.433Z,17.83
2018-10-11T12:58:46.895Z,16.00
2018-10-11T12:59:50.798Z,18.43
2018-10-11T13:00:54.621Z,16.37
2018-10-11T13:01:58.355Z,17.23
2018-10-11T13:03:01.905Z,23.30
2018-10-11T13:04:05.262Z,20.33
2018-10-11T13:05:08.800Z,18.10
2018-10-11T13:06:12.212Z,15.13
2018-10-11T13:07:15.715Z,16.80
2018-10-11T13:08:19.148Z,15.70
2018-10-11T13:09:22.829Z,15.33
2018-10-11T13:10:26.213Z,15.80
2018-10-11T13:11:29.640Z,18.33
2018-10-11T13:12:33.551Z,14.30
2018-10-11T13:13:36.979Z,17.10
2018-10-11T13:14:40.438Z,18.53
2018-10-11T13:15:43.893Z,16.13
2018-10-11T13:16:47.234Z,16.73
2018-10-11T13:17:50.663Z,12.87
2018-10-11T13:18:54.070Z,13.10
2018-10-11T13:19:57.534Z,17.10
2018-10-11T13:21:00.974Z,17.87
2018-10-11T13:22:04.481Z,20.07
2018-10-11T13:23:10.795Z,17.07
2018-10-11T13:24:11.464Z,17.20
2018-10-11T13:25:14.907Z,14.53
2018-10-11T13:26:18.346Z,18.10
2018-10-11T13:27:21.814Z,14.20
2018-10-11T13:28:25.252Z,17.77
2018-10-11T13:29:28.837Z,19.90
2018-10-11T13:30:32.316Z,16.73
2018-10-11T13:31:35.744Z,18.57
2018-10-11T13:32:39.515Z,14.33
2018-10-11T13:33:42.955Z,16.60
2018-10-11T13:34:48.991Z,17.37
2018-10-11T13:35:55.973Z,18.60
2018-10-11T13:36:59.609Z,17.90
2018-10-11T13:38:05.206Z,14.40
2018-10-11T13:39:09.596Z,16.80
2018-10-11T13:40:13.208Z,15.07
2018-10-11T13:41:17.205Z,12.70
2018-10-11T13:42:20.668Z,18.93
2018-10-11T13:43:24.159Z,19.73
2018-10-11T13:44:27.622Z,15.00
2018-10-11T13:45:31.012Z,15.13
2018-10-11T13:46:34.835Z,16.13
2018-10-11T13:47:43.707Z,14.53
2018-10-11T13:48:41.927Z,12.90